Weather at Dubrava Prison Heliport

Public forecast

Using degrees Celsius for public forecast. Weather courtesy of forecast.io.

Closest aviation weather report (METAR) to Dubrava Prison Heliport

Closest report is Priština Adem Jashari International Airport, 24.9 nm (46.1 km) ESE. Retrieved 2022/07/02 18:00 UTC (6 minutes ago):

BKPR 021800Z 21015KT 140V230 9999 TS SCT040CB 25/14 Q1020 NOSIG

Closest aviation forecast (TAF) to Dubrava Prison Heliport

Closest forecast is Priština Adem Jashari International Airport, 24.9 nm (46.1 km) ESE. Retrieved 2022/07/02 18:30 UTC (0 seconds ago):

TAF BKPR 021730Z 0218/0318 02010KT 9999 SCT040 PROB30 TEMPO 0218/0220 VRB15G25KT 5000 -TSRA SCT030CB TEMPO 0313/0318 VRB15G25KT 5000 -TSRA SCT030CB